sensor_id;sensor_type;location;lat;lon;timestamp;P1;durP1;ratioP1;P2;durP2;ratioP2
50056;SDS011;36875;49.468;11.200;2023-05-29T00:00:15;4.90;;;2.92;;
50056;SDS011;36875;49.468;11.200;2023-05-29T00:02:43;6.10;;;2.50;;
50056;SDS011;36875;49.468;11.200;2023-05-29T00:05:11;5.93;;;3.30;;
50056;SDS011;36875;49.468;11.200;2023-05-29T00:07:37;6.70;;;2.90;;
50056;SDS011;36875;49.468;11.200;2023-05-29T00:10:03;4.75;;;2.65;;
50056;SDS011;36875;49.468;11.200;2023-05-29T00:12:29;6.00;;;2.85;;
50056;SDS011;36875;49.468;11.200;2023-05-29T00:14:55;4.45;;;2.60;;
50056;SDS011;36875;49.468;11.200;2023-05-29T00:17:20;4.90;;;3.10;;
50056;SDS011;36875;49.468;11.200;2023-05-29T00:19:46;4.93;;;2.50;;
50056;SDS011;36875;49.468;11.200;2023-05-29T00:22:13;4.30;;;2.67;;
50056;SDS011;36875;49.468;11.200;2023-05-29T00:24:38;4.20;;;2.60;;
50056;SDS011;36875;49.468;11.200;2023-05-29T00:27:04;4.68;;;2.70;;
50056;SDS011;36875;49.468;11.200;2023-05-29T00:29:29;4.28;;;2.53;;
50056;SDS011;36875;49.468;11.200;2023-05-29T00:31:56;4.95;;;2.55;;
50056;SDS011;36875;49.468;11.200;2023-05-29T00:34:21;4.57;;;2.63;;
50056;SDS011;36875;49.468;11.200;2023-05-29T00:36:48;4.38;;;2.50;;
50056;SDS011;36875;49.468;11.200;2023-05-29T00:39:15;4.55;;;2.60;;
50056;SDS011;36875;49.468;11.200;2023-05-29T00:41:41;5.47;;;2.40;;
50056;SDS011;36875;49.468;11.200;2023-05-29T00:44:06;6.40;;;2.70;;
50056;SDS011;36875;49.468;11.200;2023-05-29T00:46:32;3.92;;;2.40;;
50056;SDS011;36875;49.468;11.200;2023-05-29T00:48:58;3.67;;;2.28;;
50056;SDS011;36875;49.468;11.200;2023-05-29T00:51:24;4.63;;;2.65;;
50056;SDS011;36875;49.468;11.200;2023-05-29T00:53:51;6.78;;;3.53;;
50056;SDS011;36875;49.468;11.200;2023-05-29T00:56:19;5.00;;;2.42;;
50056;SDS011;36875;49.468;11.200;2023-05-29T00:58:46;4.80;;;2.78;;
50056;SDS011;36875;49.468;11.200;2023-05-29T01:01:13;4.63;;;2.35;;
50056;SDS011;36875;49.468;11.200;2023-05-29T01:03:39;4.35;;;2.38;;
50056;SDS011;36875;49.468;11.200;2023-05-29T01:06:05;4.68;;;2.47;;
50056;SDS011;36875;49.468;11.200;2023-05-29T01:08:30;5.25;;;2.50;;
50056;SDS011;36875;49.468;11.200;2023-05-29T01:10:59;4.07;;;2.47;;
50056;SDS011;36875;49.468;11.200;2023-05-29T01:13:31;3.65;;;2.40;;
50056;SDS011;36875;49.468;11.200;2023-05-29T01:16:03;4.03;;;2.50;;
50056;SDS011;36875;49.468;11.200;2023-05-29T01:18:35;3.60;;;2.30;;
50056;SDS011;36875;49.468;11.200;2023-05-29T01:21:07;5.47;;;2.40;;
50056;SDS011;36875;49.468;11.200;2023-05-29T01:26:37;4.40;;;2.60;;
50056;SDS011;36875;49.468;11.200;2023-05-29T01:29:10;3.92;;;2.50;;
50056;SDS011;36875;49.468;11.200;2023-05-29T01:31:39;3.70;;;2.40;;
50056;SDS011;36875;49.468;11.200;2023-05-29T01:34:06;3.92;;;2.30;;
50056;SDS011;36875;49.468;11.200;2023-05-29T01:36:31;4.28;;;2.50;;
50056;SDS011;36875;49.468;11.200;2023-05-29T01:38:58;5.78;;;2.75;;
50056;SDS011;36875;49.468;11.200;2023-05-29T01:41:24;4.00;;;2.50;;
50056;SDS011;36875;49.468;11.200;2023-05-29T01:43:52;3.97;;;2.08;;
50056;SDS011;36875;49.468;11.200;2023-05-29T01:46:19;3.83;;;2.20;;
50056;SDS011;36875;49.468;11.200;2023-05-29T01:48:46;3.72;;;2.33;;
50056;SDS011;36875;49.468;11.200;2023-05-29T01:51:12;3.35;;;2.17;;
50056;SDS011;36875;49.468;11.200;2023-05-29T01:53:38;3.47;;;2.33;;
50056;SDS011;36875;49.468;11.200;2023-05-29T01:56:04;3.17;;;2.38;;
50056;SDS011;36875;49.468;11.200;2023-05-29T01:58:31;3.67;;;2.03;;
50056;SDS011;36875;49.468;11.200;2023-05-29T02:00:59;4.13;;;2.47;;
50056;SDS011;36875;49.468;11.200;2023-05-29T02:03:26;4.25;;;2.20;;
50056;SDS011;36875;49.468;11.200;2023-05-29T02:05:55;6.18;;;2.58;;
50056;SDS011;36875;49.468;11.200;2023-05-29T02:08:21;4.40;;;2.40;;
50056;SDS011;36875;49.468;11.200;2023-05-29T02:10:46;3.95;;;2.40;;
50056;SDS011;36875;49.468;11.200;2023-05-29T02:13:11;4.32;;;2.40;;
50056;SDS011;36875;49.468;11.200;2023-05-29T02:15:37;4.22;;;2.42;;
50056;SDS011;36875;49.468;11.200;2023-05-29T02:18:04;3.53;;;2.58;;
50056;SDS011;36875;49.468;11.200;2023-05-29T02:20:29;3.80;;;2.40;;
50056;SDS011;36875;49.468;11.200;2023-05-29T02:22:55;3.65;;;2.20;;
50056;SDS011;36875;49.468;11.200;2023-05-29T02:25:20;4.30;;;2.22;;
50056;SDS011;36875;49.468;11.200;2023-05-29T02:27:46;5.35;;;2.60;;
50056;SDS011;36875;49.468;11.200;2023-05-29T02:30:11;3.75;;;2.33;;
50056;SDS011;36875;49.468;11.200;2023-05-29T02:32:37;4.72;;;2.30;;
50056;SDS011;36875;49.468;11.200;2023-05-29T02:35:04;4.43;;;2.10;;
50056;SDS011;36875;49.468;11.200;2023-05-29T02:37:29;4.68;;;2.17;;
50056;SDS011;36875;49.468;11.200;2023-05-29T02:39:55;3.85;;;2.22;;
50056;SDS011;36875;49.468;11.200;2023-05-29T02:42:20;4.32;;;2.50;;
50056;SDS011;36875;49.468;11.200;2023-05-29T02:44:46;3.17;;;2.15;;
50056;SDS011;36875;49.468;11.200;2023-05-29T02:47:12;4.38;;;2.28;;
50056;SDS011;36875;49.468;11.200;2023-05-29T02:49:37;3.55;;;2.00;;
50056;SDS011;36875;49.468;11.200;2023-05-29T02:52:07;3.97;;;2.33;;
50056;SDS011;36875;49.468;11.200;2023-05-29T02:54:32;3.22;;;2.25;;
50056;SDS011;36875;49.468;11.200;2023-05-29T02:56:58;3.92;;;2.30;;
50056;SDS011;36875;49.468;11.200;2023-05-29T02:59:23;4.55;;;2.50;;
50056;SDS011;36875;49.468;11.200;2023-05-29T03:01:48;3.55;;;2.10;;
50056;SDS011;36875;49.468;11.200;2023-05-29T03:04:14;3.15;;;2.10;;
50056;SDS011;36875;49.468;11.200;2023-05-29T03:06:40;4.20;;;2.42;;
50056;SDS011;36875;49.468;11.200;2023-05-29T03:09:07;3.33;;;2.08;;
50056;SDS011;36875;49.468;11.200;2023-05-29T03:11:33;3.47;;;2.30;;
50056;SDS011;36875;49.468;11.200;2023-05-29T03:14:00;3.95;;;2.35;;
50056;SDS011;36875;49.468;11.200;2023-05-29T03:16:26;3.75;;;2.15;;
50056;SDS011;36875;49.468;11.200;2023-05-29T03:18:54;3.40;;;2.20;;
50056;SDS011;36875;49.468;11.200;2023-05-29T03:21:19;4.45;;;2.22;;
50056;SDS011;36875;49.468;11.200;2023-05-29T03:23:46;2.58;;;2.00;;
50056;SDS011;36875;49.468;11.200;2023-05-29T03:26:13;3.55;;;2.40;;
50056;SDS011;36875;49.468;11.200;2023-05-29T03:28:38;3.20;;;2.13;;
50056;SDS011;36875;49.468;11.200;2023-05-29T03:31:04;4.18;;;2.40;;
50056;SDS011;36875;49.468;11.200;2023-05-29T03:33:30;3.10;;;2.05;;
50056;SDS011;36875;49.468;11.200;2023-05-29T03:35:55;3.22;;;2.08;;
50056;SDS011;36875;49.468;11.200;2023-05-29T03:38:21;3.00;;;2.08;;
50056;SDS011;36875;49.468;11.200;2023-05-29T03:40:47;3.15;;;2.15;;
50056;SDS011;36875;49.468;11.200;2023-05-29T03:43:14;3.55;;;2.20;;
50056;SDS011;36875;49.468;11.200;2023-05-29T03:45:39;3.80;;;2.40;;
50056;SDS011;36875;49.468;11.200;2023-05-29T03:48:05;2.95;;;2.00;;
50056;SDS011;36875;49.468;11.200;2023-05-29T03:50:30;3.33;;;2.17;;
50056;SDS011;36875;49.468;11.200;2023-05-29T03:52:56;4.88;;;2.30;;
50056;SDS011;36875;49.468;11.200;2023-05-29T03:55:21;3.40;;;2.00;;
50056;SDS011;36875;49.468;11.200;2023-05-29T03:57:47;3.42;;;2.20;;
50056;SDS011;36875;49.468;11.200;2023-05-29T04:00:14;3.28;;;2.00;;
50056;SDS011;36875;49.468;11.200;2023-05-29T04:02:40;5.70;;;2.35;;
50056;SDS011;36875;49.468;11.200;2023-05-29T04:05:06;3.58;;;2.13;;
50056;SDS011;36875;49.468;11.200;2023-05-29T04:07:32;3.95;;;2.10;;
50056;SDS011;36875;49.468;11.200;2023-05-29T04:09:58;3.35;;;2.13;;
50056;SDS011;36875;49.468;11.200;2023-05-29T04:12:23;3.35;;;2.20;;
50056;SDS011;36875;49.468;11.200;2023-05-29T04:14:49;3.33;;;2.10;;
50056;SDS011;36875;49.468;11.200;2023-05-29T04:17:16;3.88;;;2.17;;
50056;SDS011;36875;49.468;11.200;2023-05-29T04:19:41;3.17;;;1.95;;
50056;SDS011;36875;49.468;11.200;2023-05-29T04:22:07;3.05;;;1.90;;
50056;SDS011;36875;49.468;11.200;2023-05-29T04:24:32;2.72;;;2.15;;
50056;SDS011;36875;49.468;11.200;2023-05-29T04:26:58;3.13;;;2.00;;
50056;SDS011;36875;49.468;11.200;2023-05-29T04:29:25;3.05;;;1.90;;
50056;SDS011;36875;49.468;11.200;2023-05-29T04:31:51;3.65;;;2.25;;
50056;SDS011;36875;49.468;11.200;2023-05-29T04:34:18;4.07;;;2.13;;
50056;SDS011;36875;49.468;11.200;2023-05-29T04:36:45;3.95;;;2.22;;
50056;SDS011;36875;49.468;11.200;2023-05-29T04:39:11;3.13;;;2.05;;
50056;SDS011;36875;49.468;11.200;2023-05-29T04:41:36;4.55;;;2.28;;
50056;SDS011;36875;49.468;11.200;2023-05-29T04:44:03;3.55;;;2.10;;
50056;SDS011;36875;49.468;11.200;2023-05-29T04:46:29;2.50;;;1.77;;
50056;SDS011;36875;49.468;11.200;2023-05-29T04:48:55;3.53;;;2.30;;
50056;SDS011;36875;49.468;11.200;2023-05-29T04:51:22;3.00;;;2.05;;
50056;SDS011;36875;49.468;11.200;2023-05-29T04:53:48;4.68;;;2.30;;
50056;SDS011;36875;49.468;11.200;2023-05-29T04:56:16;3.40;;;2.10;;
50056;SDS011;36875;49.468;11.200;2023-05-29T04:58:43;3.00;;;2.13;;
50056;SDS011;36875;49.468;11.200;2023-05-29T05:01:09;3.72;;;2.17;;
50056;SDS011;36875;49.468;11.200;2023-05-29T05:03:34;3.17;;;1.83;;
50056;SDS011;36875;49.468;11.200;2023-05-29T05:06:01;2.70;;;1.92;;
50056;SDS011;36875;49.468;11.200;2023-05-29T05:08:32;3.65;;;2.10;;
50056;SDS011;36875;49.468;11.200;2023-05-29T05:10:59;3.60;;;2.00;;
50056;SDS011;36875;49.468;11.200;2023-05-29T05:13:25;3.30;;;2.10;;
50056;SDS011;36875;49.468;11.200;2023-05-29T05:15:50;3.60;;;2.10;;
50056;SDS011;36875;49.468;11.200;2023-05-29T05:18:16;2.60;;;1.88;;
50056;SDS011;36875;49.468;11.200;2023-05-29T05:20:42;3.25;;;2.10;;
50056;SDS011;36875;49.468;11.200;2023-05-29T05:23:07;3.92;;;2.25;;
50056;SDS011;36875;49.468;11.200;2023-05-29T05:25:34;3.40;;;2.00;;
50056;SDS011;36875;49.468;11.200;2023-05-29T05:28:00;2.70;;;1.80;;
50056;SDS011;36875;49.468;11.200;2023-05-29T05:30:25;3.47;;;2.15;;
50056;SDS011;36875;49.468;11.200;2023-05-29T05:32:51;3.60;;;1.90;;
50056;SDS011;36875;49.468;11.200;2023-05-29T05:35:16;3.40;;;2.00;;
50056;SDS011;36875;49.468;11.200;2023-05-29T05:37:42;3.00;;;2.05;;
50056;SDS011;36875;49.468;11.200;2023-05-29T05:40:08;3.80;;;2.17;;
50056;SDS011;36875;49.468;11.200;2023-05-29T05:42:35;3.72;;;2.15;;
50056;SDS011;36875;49.468;11.200;2023-05-29T05:45:00;3.38;;;2.22;;
50056;SDS011;36875;49.468;11.200;2023-05-29T05:47:26;3.22;;;2.03;;
50056;SDS011;36875;49.468;11.200;2023-05-29T05:49:54;2.83;;;1.80;;
50056;SDS011;36875;49.468;11.200;2023-05-29T05:52:21;3.15;;;1.90;;
50056;SDS011;36875;49.468;11.200;2023-05-29T05:54:47;3.38;;;2.00;;
50056;SDS011;36875;49.468;11.200;2023-05-29T05:57:13;3.55;;;2.05;;
50056;SDS011;36875;49.468;11.200;2023-05-29T05:59:40;3.30;;;1.90;;
50056;SDS011;36875;49.468;11.200;2023-05-29T06:02:06;3.78;;;2.22;;
50056;SDS011;36875;49.468;11.200;2023-05-29T06:04:31;4.55;;;2.40;;
50056;SDS011;36875;49.468;11.200;2023-05-29T06:06:57;4.10;;;2.10;;
50056;SDS011;36875;49.468;11.200;2023-05-29T06:09:23;4.13;;;2.10;;
50056;SDS011;36875;49.468;11.200;2023-05-29T06:11:50;4.00;;;2.30;;
50056;SDS011;36875;49.468;11.200;2023-05-29T06:14:15;3.28;;;2.00;;
50056;SDS011;36875;49.468;11.200;2023-05-29T06:16:42;3.17;;;1.98;;
50056;SDS011;36875;49.468;11.200;2023-05-29T06:19:08;3.47;;;2.15;;
50056;SDS011;36875;49.468;11.200;2023-05-29T06:21:34;2.42;;;1.80;;
50056;SDS011;36875;49.468;11.200;2023-05-29T06:24:00;3.00;;;2.15;;
50056;SDS011;36875;49.468;11.200;2023-05-29T06:26:25;2.63;;;1.80;;
50056;SDS011;36875;49.468;11.200;2023-05-29T06:28:51;3.10;;;2.13;;
50056;SDS011;36875;49.468;11.200;2023-05-29T06:31:17;3.45;;;2.03;;
50056;SDS011;36875;49.468;11.200;2023-05-29T06:33:44;3.65;;;2.15;;
50056;SDS011;36875;49.468;11.200;2023-05-29T06:36:10;2.42;;;1.95;;
50056;SDS011;36875;49.468;11.200;2023-05-29T06:38:35;4.00;;;2.30;;
50056;SDS011;36875;49.468;11.200;2023-05-29T06:41:01;3.42;;;2.00;;
50056;SDS011;36875;49.468;11.200;2023-05-29T06:43:26;3.45;;;2.08;;
50056;SDS011;36875;49.468;11.200;2023-05-29T06:45:52;2.90;;;2.17;;
50056;SDS011;36875;49.468;11.200;2023-05-29T06:48:17;3.55;;;2.10;;
50056;SDS011;36875;49.468;11.200;2023-05-29T06:50:44;3.03;;;2.00;;
50056;SDS011;36875;49.468;11.200;2023-05-29T06:53:10;3.00;;;1.90;;
50056;SDS011;36875;49.468;11.200;2023-05-29T06:55:36;3.35;;;1.98;;
50056;SDS011;36875;49.468;11.200;2023-05-29T06:58:01;3.25;;;2.17;;
50056;SDS011;36875;49.468;11.200;2023-05-29T07:00:27;4.25;;;2.20;;
50056;SDS011;36875;49.468;11.200;2023-05-29T07:02:53;2.88;;;1.88;;
50056;SDS011;36875;49.468;11.200;2023-05-29T07:05:19;3.05;;;2.00;;
50056;SDS011;36875;49.468;11.200;2023-05-29T07:07:46;3.03;;;1.98;;
50056;SDS011;36875;49.468;11.200;2023-05-29T07:10:11;3.42;;;2.13;;
50056;SDS011;36875;49.468;11.200;2023-05-29T07:12:37;4.00;;;1.90;;
50056;SDS011;36875;49.468;11.200;2023-05-29T07:15:02;3.63;;;1.98;;
50056;SDS011;36875;49.468;11.200;2023-05-29T07:17:28;2.67;;;1.95;;
50056;SDS011;36875;49.468;11.200;2023-05-29T07:19:54;2.58;;;1.88;;
50056;SDS011;36875;49.468;11.200;2023-05-29T07:22:19;2.90;;;1.98;;
50056;SDS011;36875;49.468;11.200;2023-05-29T07:24:46;3.03;;;1.90;;
50056;SDS011;36875;49.468;11.200;2023-05-29T07:27:12;2.63;;;1.90;;
50056;SDS011;36875;49.468;11.200;2023-05-29T07:29:37;4.03;;;2.00;;
50056;SDS011;36875;49.468;11.200;2023-05-29T07:32:03;3.25;;;2.08;;
50056;SDS011;36875;49.468;11.200;2023-05-29T07:34:29;4.75;;;2.20;;
50056;SDS011;36875;49.468;11.200;2023-05-29T07:36:58;3.33;;;2.13;;
50056;SDS011;36875;49.468;11.200;2023-05-29T07:39:25;3.25;;;2.00;;
50056;SDS011;36875;49.468;11.200;2023-05-29T07:41:52;5.63;;;2.10;;
50056;SDS011;36875;49.468;11.200;2023-05-29T07:44:18;3.25;;;2.33;;
50056;SDS011;36875;49.468;11.200;2023-05-29T07:46:43;3.03;;;1.73;;
50056;SDS011;36875;49.468;11.200;2023-05-29T07:49:09;3.88;;;2.40;;
50056;SDS011;36875;49.468;11.200;2023-05-29T07:51:34;4.05;;;2.00;;
50056;SDS011;36875;49.468;11.200;2023-05-29T07:54:00;6.88;;;2.15;;
50056;SDS011;36875;49.468;11.200;2023-05-29T07:56:26;3.85;;;2.00;;
50056;SDS011;36875;49.468;11.200;2023-05-29T07:58:53;3.20;;;2.20;;
50056;SDS011;36875;49.468;11.200;2023-05-29T08:01:19;2.67;;;1.80;;
50056;SDS011;36875;49.468;11.200;2023-05-29T08:03:46;4.50;;;2.17;;
50056;SDS011;36875;49.468;11.200;2023-05-29T08:06:12;4.25;;;1.63;;
50056;SDS011;36875;49.468;11.200;2023-05-29T08:08:37;3.83;;;1.83;;
50056;SDS011;36875;49.468;11.200;2023-05-29T08:11:03;2.63;;;1.80;;
50056;SDS011;36875;49.468;11.200;2023-05-29T08:13:29;3.00;;;1.70;;
50056;SDS011;36875;49.468;11.200;2023-05-29T08:15:56;3.90;;;2.38;;
50056;SDS011;36875;49.468;11.200;2023-05-29T08:18:24;3.28;;;1.88;;
50056;SDS011;36875;49.468;11.200;2023-05-29T08:20:50;7.00;;;2.20;;
50056;SDS011;36875;49.468;11.200;2023-05-29T08:23:17;3.60;;;2.03;;
50056;SDS011;36875;49.468;11.200;2023-05-29T08:25:43;4.15;;;2.10;;
50056;SDS011;36875;49.468;11.200;2023-05-29T08:28:08;4.20;;;2.22;;
50056;SDS011;36875;49.468;11.200;2023-05-29T08:30:34;6.25;;;2.10;;
50056;SDS011;36875;49.468;11.200;2023-05-29T08:33:01;6.22;;;2.20;;
50056;SDS011;36875;49.468;11.200;2023-05-29T08:35:28;5.47;;;2.33;;
50056;SDS011;36875;49.468;11.200;2023-05-29T08:37:53;3.75;;;2.20;;
50056;SDS011;36875;49.468;11.200;2023-05-29T08:40:19;4.88;;;2.70;;
50056;SDS011;36875;49.468;11.200;2023-05-29T08:42:45;3.97;;;2.50;;
50056;SDS011;36875;49.468;11.200;2023-05-29T08:45:13;3.85;;;2.10;;
50056;SDS011;36875;49.468;11.200;2023-05-29T08:47:39;4.75;;;2.40;;
50056;SDS011;36875;49.468;11.200;2023-05-29T08:50:08;5.72;;;2.47;;
50056;SDS011;36875;49.468;11.200;2023-05-29T08:52:35;4.70;;;2.20;;
50056;SDS011;36875;49.468;11.200;2023-05-29T08:55:01;4.88;;;2.17;;
50056;SDS011;36875;49.468;11.200;2023-05-29T08:57:27;6.85;;;2.50;;
50056;SDS011;36875;49.468;11.200;2023-05-29T08:59:54;4.05;;;2.53;;
50056;SDS011;36875;49.468;11.200;2023-05-29T09:02:21;4.63;;;2.63;;
50056;SDS011;36875;49.468;11.200;2023-05-29T09:04:46;6.32;;;2.60;;
50056;SDS011;36875;49.468;11.200;2023-05-29T09:09:45;4.20;;;2.30;;
50056;SDS011;36875;49.468;11.200;2023-05-29T09:12:11;5.32;;;2.65;;
50056;SDS011;36875;49.468;11.200;2023-05-29T09:14:37;5.40;;;2.50;;
50056;SDS011;36875;49.468;11.200;2023-05-29T09:17:04;4.93;;;2.42;;
50056;SDS011;36875;49.468;11.200;2023-05-29T09:19:31;4.28;;;2.50;;
50056;SDS011;36875;49.468;11.200;2023-05-29T09:22:01;4.07;;;2.40;;
50056;SDS011;36875;49.468;11.200;2023-05-29T09:24:29;5.15;;;2.50;;
50056;SDS011;36875;49.468;11.200;2023-05-29T09:26:55;5.32;;;2.60;;
50056;SDS011;36875;49.468;11.200;2023-05-29T09:29:22;4.78;;;2.38;;
50056;SDS011;36875;49.468;11.200;2023-05-29T09:31:48;4.10;;;2.20;;
50056;SDS011;36875;49.468;11.200;2023-05-29T09:34:14;6.80;;;2.72;;
50056;SDS011;36875;49.468;11.200;2023-05-29T09:36:40;4.82;;;2.60;;
50056;SDS011;36875;49.468;11.200;2023-05-29T09:39:06;6.47;;;2.47;;
50056;SDS011;36875;49.468;11.200;2023-05-29T09:41:36;4.03;;;2.28;;
50056;SDS011;36875;49.468;11.200;2023-05-29T09:44:06;5.05;;;2.65;;
50056;SDS011;36875;49.468;11.200;2023-05-29T09:46:35;4.38;;;2.40;;
50056;SDS011;36875;49.468;11.200;2023-05-29T09:49:00;5.40;;;2.50;;
50056;SDS011;36875;49.468;11.200;2023-05-29T09:51:27;6.45;;;2.80;;
50056;SDS011;36875;49.468;11.200;2023-05-29T09:53:53;5.47;;;2.55;;
50056;SDS011;36875;49.468;11.200;2023-05-29T09:56:21;5.93;;;2.33;;
50056;SDS011;36875;49.468;11.200;2023-05-29T09:58:51;4.75;;;2.35;;
50056;SDS011;36875;49.468;11.200;2023-05-29T10:01:18;5.07;;;2.55;;
50056;SDS011;36875;49.468;11.200;2023-05-29T10:03:44;4.35;;;2.35;;
50056;SDS011;36875;49.468;11.200;2023-05-29T10:06:11;5.35;;;2.25;;
50056;SDS011;36875;49.468;11.200;2023-05-29T10:08:42;4.82;;;2.40;;
50056;SDS011;36875;49.468;11.200;2023-05-29T10:11:12;5.13;;;2.28;;
50056;SDS011;36875;49.468;11.200;2023-05-29T10:13:41;6.00;;;2.45;;
50056;SDS011;36875;49.468;11.200;2023-05-29T10:16:15;4.18;;;2.20;;
50056;SDS011;36875;49.468;11.200;2023-05-29T10:18:43;3.88;;;2.35;;
50056;SDS011;36875;49.468;11.200;2023-05-29T10:21:14;5.22;;;2.50;;
50056;SDS011;36875;49.468;11.200;2023-05-29T10:23:42;5.38;;;2.40;;
50056;SDS011;36875;49.468;11.200;2023-05-29T10:26:12;3.45;;;2.20;;
50056;SDS011;36875;49.468;11.200;2023-05-29T10:28:41;3.90;;;2.00;;
50056;SDS011;36875;49.468;11.200;2023-05-29T10:31:12;6.00;;;2.40;;
50056;SDS011;36875;49.468;11.200;2023-05-29T10:33:47;4.78;;;2.40;;
50056;SDS011;36875;49.468;11.200;2023-05-29T10:36:23;4.03;;;2.17;;
50056;SDS011;36875;49.468;11.200;2023-05-29T10:38:53;4.05;;;2.10;;
50056;SDS011;36875;49.468;11.200;2023-05-29T10:41:28;4.25;;;2.35;;
50056;SDS011;36875;49.468;11.200;2023-05-29T10:43:54;6.05;;;2.58;;
50056;SDS011;36875;49.468;11.200;2023-05-29T10:46:22;4.70;;;2.28;;
50056;SDS011;36875;49.468;11.200;2023-05-29T10:49:26;3.63;;;1.95;;
50056;SDS011;36875;49.468;11.200;2023-05-29T10:51:52;4.97;;;2.40;;
50056;SDS011;36875;49.468;11.200;2023-05-29T10:54:18;4.03;;;2.28;;
50056;SDS011;36875;49.468;11.200;2023-05-29T10:56:51;3.83;;;2.22;;
50056;SDS011;36875;49.468;11.200;2023-05-29T10:59:18;4.97;;;2.38;;
50056;SDS011;36875;49.468;11.200;2023-05-29T11:01:45;4.97;;;2.40;;
50056;SDS011;36875;49.468;11.200;2023-05-29T11:04:29;4.15;;;2.30;;
50056;SDS011;36875;49.468;11.200;2023-05-29T11:06:56;4.80;;;2.10;;
50056;SDS011;36875;49.468;11.200;2023-05-29T11:09:26;3.67;;;2.10;;
50056;SDS011;36875;49.468;11.200;2023-05-29T11:12:15;4.72;;;2.30;;
50056;SDS011;36875;49.468;11.200;2023-05-29T11:15:02;5.80;;;1.98;;
50056;SDS011;36875;49.468;11.200;2023-05-29T11:17:32;4.25;;;2.05;;
50056;SDS011;36875;49.468;11.200;2023-05-29T11:20:09;4.53;;;2.15;;
50056;SDS011;36875;49.468;11.200;2023-05-29T11:22:51;4.93;;;2.30;;
50056;SDS011;36875;49.468;11.200;2023-05-29T11:25:25;4.78;;;2.10;;
50056;SDS011;36875;49.468;11.200;2023-05-29T11:27:51;3.97;;;2.10;;
50056;SDS011;36875;49.468;11.200;2023-05-29T11:30:19;3.72;;;1.90;;
50056;SDS011;36875;49.468;11.200;2023-05-29T11:32:47;4.00;;;2.20;;
50056;SDS011;36875;49.468;11.200;2023-05-29T11:35:15;3.78;;;2.20;;
50056;SDS011;36875;49.468;11.200;2023-05-29T11:37:43;4.47;;;1.95;;
50056;SDS011;36875;49.468;11.200;2023-05-29T11:40:11;3.60;;;2.10;;
50056;SDS011;36875;49.468;11.200;2023-05-29T11:42:40;4.15;;;2.22;;
50056;SDS011;36875;49.468;11.200;2023-05-29T11:45:09;4.82;;;2.15;;
50056;SDS011;36875;49.468;11.200;2023-05-29T11:47:51;4.22;;;2.20;;
50056;SDS011;36875;49.468;11.200;2023-05-29T11:50:18;3.40;;;2.15;;
50056;SDS011;36875;49.468;11.200;2023-05-29T11:52:45;4.60;;;2.20;;
50056;SDS011;36875;49.468;11.200;2023-05-29T11:55:11;4.10;;;2.28;;
50056;SDS011;36875;49.468;11.200;2023-05-29T11:57:37;3.47;;;2.10;;
50056;SDS011;36875;49.468;11.200;2023-05-29T12:00:06;4.40;;;2.10;;
50056;SDS011;36875;49.468;11.200;2023-05-29T12:02:37;4.22;;;2.00;;
50056;SDS011;36875;49.468;11.200;2023-05-29T12:05:05;4.05;;;2.35;;
50056;SDS011;36875;49.468;11.200;2023-05-29T12:07:34;6.50;;;2.20;;
50056;SDS011;36875;49.468;11.200;2023-05-29T12:10:08;4.60;;;2.28;;
50056;SDS011;36875;49.468;11.200;2023-05-29T12:12:34;5.25;;;2.17;;
50056;SDS011;36875;49.468;11.200;2023-05-29T12:15:00;4.90;;;2.10;;
50056;SDS011;36875;49.468;11.200;2023-05-29T12:17:30;8.63;;;2.65;;
50056;SDS011;36875;49.468;11.200;2023-05-29T12:19:56;6.18;;;2.70;;
50056;SDS011;36875;49.468;11.200;2023-05-29T12:22:31;13.32;;;3.05;;
50056;SDS011;36875;49.468;11.200;2023-05-29T12:25:02;8.73;;;2.67;;
50056;SDS011;36875;49.468;11.200;2023-05-29T12:27:30;6.53;;;2.70;;
50056;SDS011;36875;49.468;11.200;2023-05-29T12:29:59;8.20;;;2.83;;
50056;SDS011;36875;49.468;11.200;2023-05-29T12:32:29;8.05;;;3.05;;
50056;SDS011;36875;49.468;11.200;2023-05-29T12:34:59;7.60;;;2.88;;
50056;SDS011;36875;49.468;11.200;2023-05-29T12:37:25;6.00;;;2.92;;
50056;SDS011;36875;49.468;11.200;2023-05-29T12:42:37;9.57;;;3.10;;
50056;SDS011;36875;49.468;11.200;2023-05-29T12:45:03;8.10;;;3.03;;
50056;SDS011;36875;49.468;11.200;2023-05-29T12:47:30;7.80;;;2.90;;
50056;SDS011;36875;49.468;11.200;2023-05-29T12:49:57;9.93;;;3.65;;
50056;SDS011;36875;49.468;11.200;2023-05-29T12:52:23;8.73;;;3.33;;
50056;SDS011;36875;49.468;11.200;2023-05-29T12:54:48;8.13;;;3.30;;
50056;SDS011;36875;49.468;11.200;2023-05-29T12:57:15;8.80;;;3.15;;
50056;SDS011;36875;49.468;11.200;2023-05-29T12:59:43;7.57;;;3.03;;
50056;SDS011;36875;49.468;11.200;2023-05-29T13:02:08;7.20;;;3.60;;
50056;SDS011;36875;49.468;11.200;2023-05-29T13:04:34;10.02;;;3.35;;
50056;SDS011;36875;49.468;11.200;2023-05-29T13:06:59;9.63;;;3.40;;
50056;SDS011;36875;49.468;11.200;2023-05-29T13:09:25;6.80;;;3.30;;
50056;SDS011;36875;49.468;11.200;2023-05-29T13:11:50;6.68;;;3.08;;
50056;SDS011;36875;49.468;11.200;2023-05-29T13:14:19;7.70;;;3.45;;
50056;SDS011;36875;49.468;11.200;2023-05-29T13:16:44;8.85;;;3.65;;
50056;SDS011;36875;49.468;11.200;2023-05-29T13:19:10;5.60;;;2.70;;
50056;SDS011;36875;49.468;11.200;2023-05-29T13:21:35;9.38;;;3.67;;
50056;SDS011;36875;49.468;11.200;2023-05-29T13:24:01;9.40;;;3.40;;
50056;SDS011;36875;49.468;11.200;2023-05-29T13:26:27;9.95;;;3.30;;
50056;SDS011;36875;49.468;11.200;2023-05-29T13:28:52;9.18;;;3.47;;
50056;SDS011;36875;49.468;11.200;2023-05-29T13:31:19;7.43;;;3.15;;
50056;SDS011;36875;49.468;11.200;2023-05-29T13:33:46;8.10;;;3.17;;
50056;SDS011;36875;49.468;11.200;2023-05-29T13:36:12;7.32;;;2.95;;
50056;SDS011;36875;49.468;11.200;2023-05-29T13:38:37;8.48;;;3.13;;
50056;SDS011;36875;49.468;11.200;2023-05-29T13:41:03;7.95;;;3.40;;
50056;SDS011;36875;49.468;11.200;2023-05-29T13:43:28;9.15;;;3.30;;
50056;SDS011;36875;49.468;11.200;2023-05-29T13:45:54;5.80;;;3.00;;
50056;SDS011;36875;49.468;11.200;2023-05-29T13:48:21;10.10;;;3.50;;
50056;SDS011;36875;49.468;11.200;2023-05-29T13:50:46;6.97;;;3.05;;
50056;SDS011;36875;49.468;11.200;2023-05-29T13:53:12;8.07;;;2.83;;
50056;SDS011;36875;49.468;11.200;2023-05-29T13:55:37;8.52;;;3.22;;
50056;SDS011;36875;49.468;11.200;2023-05-29T13:58:03;4.93;;;2.78;;
50056;SDS011;36875;49.468;11.200;2023-05-29T14:00:28;7.68;;;3.20;;
50056;SDS011;36875;49.468;11.200;2023-05-29T14:02:54;6.93;;;2.85;;
50056;SDS011;36875;49.468;11.200;2023-05-29T14:05:21;7.15;;;3.22;;
50056;SDS011;36875;49.468;11.200;2023-05-29T14:07:46;6.82;;;2.90;;
50056;SDS011;36875;49.468;11.200;2023-05-29T14:10:12;5.63;;;2.67;;
50056;SDS011;36875;49.468;11.200;2023-05-29T14:12:37;7.03;;;2.85;;
50056;SDS011;36875;49.468;11.200;2023-05-29T14:15:03;5.95;;;2.80;;
50056;SDS011;36875;49.468;11.200;2023-05-29T14:17:30;5.03;;;2.92;;
50056;SDS011;36875;49.468;11.200;2023-05-29T14:19:55;6.95;;;2.80;;
50056;SDS011;36875;49.468;11.200;2023-05-29T14:22:22;6.32;;;2.83;;
50056;SDS011;36875;49.468;11.200;2023-05-29T14:24:48;5.95;;;2.42;;
50056;SDS011;36875;49.468;11.200;2023-05-29T14:27:13;7.57;;;3.15;;
50056;SDS011;36875;49.468;11.200;2023-05-29T14:29:41;6.28;;;2.78;;
50056;SDS011;36875;49.468;11.200;2023-05-29T14:32:06;7.82;;;2.60;;
50056;SDS011;36875;49.468;11.200;2023-05-29T14:34:32;6.10;;;2.90;;
50056;SDS011;36875;49.468;11.200;2023-05-29T14:36:57;6.57;;;2.67;;
50056;SDS011;36875;49.468;11.200;2023-05-29T14:39:24;6.43;;;2.90;;